Ashland, WV

6:09 AM EDT on September 15, 2014 (GMT -0400)
Mercer County | Change Station
CLOSE
Current Station
Airport
Location: Bluefield,
Elevation: 2858 ft
Nearby Weather Stations
Active Advisory: Special Statement

Elev 2858 ft 37.30 °N, 81.21 °W | Updated 17 minutes ago

Overcast
Overcast
58 °F
Feels Like 58 °F
N
0
Wind Variable Wind from North

Today
High -- | Low -- °F
--% Chance of Precip.
Yesterday
High -- | Low -- °F
Precip. -- in
7:07 AM 7:33 PM
Waning Gibbous, 57% visible
Pressure 30.20 in
Visibility 0.5 miles
Clouds
Dew Point 55 °F
Humidity 90%
Rainfall 0.00 in
Snow Depth Not available.
UV Not available.
Pollen 6.10 out of 12
Air Quality Not available.
Flu Activity Not available.
METAR KBLF 150952Z AUTO 00000KT 1/2SM FG VV003 14/13 A3026 RMK AO2 SLP226 T01440128

More Conditions Fewer Conditions

Pressure 30.20 in
Visibility 0.5 miles
Clouds
Dew Point 55 °F
Humidity 90%
Rainfall 0.00 in
Snow Depth Not available.
UV Not available.
Pollen 6.10 out of 12
Air Quality Not available.
Flu Activity Not available.
METAR KBLF 150952Z AUTO 00000KT 1/2SM FG VV003 14/13 A3026 RMK AO2 SLP226 T01440128

More Conditions Fewer Conditions

10-Day Weather Forecast

Almanac

Astronomy

Sep. 15, 2014 Rise Set
Actual Time 7:07 AM EDT 7:33 PM EDT
Civil Twilight 6:41 AM EDT 7:59 PM EDT
Nautical Twilight 6:10 AM EDT 8:30 PM EDT
Astronomical Twilight 5:39 AM EDT 9:01 PM EDT
Moon No Moon Rise 1:59 PM EDT
Length of Visible Light 13h 18m
Length of Day
12h 25m
Tomorrow will be 2m 23s shorter.
Waning Gibbous, 57% of the Moon is Illuminated
Today
Waning Gibbous
Sep 15
Last Quarter
Sep 24
New
Oct 1
First Quarter
Oct 8
Full

Today's Extremes

State Highs State Lows

Community

WunderPhotos

Upload Photos

1,753,428 photos uploaded!

WunderBlogs® & News

Nearby

Snow Depth

Station Depth Elevation
No new snow has been reported.

Earthquake Activity

City Distance Mag. Time & Date
No recent earthquake activity has been reported nearby.
Minimum magnitude displayed is 2.5.

Coastal Water Temperatures

Place Temperature
No Stations Reporting

Nearby Weather Stations